MZQ weather

Pista Mezquital
Mexicali, Baja California, Mexico

Public forecast

Using degrees Celsius for public forecast. Weather courtesy of forecast.io.

Closest aviation weather report (METAR) to Pista Mezquital

Closest report is Yuma MCAS/Yuma International Airport, 16.8 nm (31.2 km) ENE. Retrieved 2019/10/23 23:57 UTC (27 minutes ago):

KNYL 232357Z 35011KT 7SM CLR 34/M03 A2979 RMK AO2 SLP084 T03391028 10350 20311

Closest aviation forecast (TAF) to Pista Mezquital

Forecast is more than 12 hours old.

Closest forecast is Yuma MCAS/Yuma International Airport, 16.8 nm (31.2 km) ENE. Retrieved 2014/04/27 15:15 UTC (5 years ago):

TAF TAF COR KNYL 271500Z 2715/2815 VRB06KT 9999 FEW250 QNH2989INS BECMG 2716/2718 26007KT QNH2978INS BECMG 2806/2808 VRB05KT QNH2981INS AUTOMATED SENSOR METWATCH 2715 TIL 2815 TX22/2723Z TN10/2813Z COR 1545